createdAt,value
2022-10-31T00:02:08.770Z,100700.21
2022-10-31T00:04:40.133Z,100698.19
2022-10-31T00:07:11.045Z,100698.20
2022-10-31T00:09:41.901Z,100698.38
2022-10-31T00:12:12.695Z,100700.59
2022-10-31T00:14:43.631Z,100698.22
2022-10-31T00:17:14.429Z,100701.14
2022-10-31T00:19:45.262Z,100698.05
2022-10-31T00:22:16.254Z,100694.98
2022-10-31T00:24:47.242Z,100698.08
2022-10-31T00:27:18.431Z,100699.11
2022-10-31T00:29:50.539Z,100704.59
2022-10-31T00:32:23.505Z,100702.55
2022-10-31T00:34:54.339Z,100703.07
2022-10-31T00:37:25.204Z,100702.22
2022-10-31T00:39:55.953Z,100700.70
2022-10-31T00:42:27.138Z,100705.14
2022-10-31T00:44:57.954Z,100701.20
2022-10-31T00:47:28.758Z,100706.17
2022-10-31T00:49:59.619Z,100713.71
2022-10-31T00:52:30.558Z,100713.55
2022-10-31T00:55:01.980Z,100716.48
2022-10-31T00:57:33.736Z,100715.98
2022-10-31T01:00:04.962Z,100713.42
2022-10-31T01:02:35.940Z,100714.46
2022-10-31T01:05:07.509Z,100715.33
2022-10-31T01:07:41.311Z,100716.18
2022-10-31T01:10:14.055Z,100715.16
2022-10-31T01:12:46.947Z,100709.70
2022-10-31T01:15:20.901Z,100713.96
2022-10-31T01:17:52.203Z,100713.80
2022-10-31T01:20:23.178Z,100716.39
2022-10-31T01:22:53.998Z,100718.60
2022-10-31T01:25:27.809Z,100716.71
2022-10-31T01:27:59.040Z,100716.54
2022-10-31T01:30:30.809Z,100716.71
2022-10-31T01:33:02.203Z,100720.13
2022-10-31T01:35:33.803Z,100723.39
2022-10-31T01:38:04.983Z,100727.66
2022-10-31T01:40:35.921Z,100724.59
2022-10-31T01:43:06.852Z,100720.67
2022-10-31T01:45:38.103Z,100723.57
2022-10-31T01:48:14.370Z,100725.11
2022-10-31T01:50:49.995Z,100724.26
2022-10-31T01:53:25.952Z,100725.45
2022-10-31T01:55:58.159Z,100720.50
2022-10-31T01:58:32.568Z,100723.23
2022-10-31T02:01:08.074Z,100722.05
2022-10-31T02:03:40.026Z,100721.02
2022-10-31T02:06:19.221Z,100722.38
2022-10-31T02:08:50.306Z,100721.86
2022-10-31T02:11:21.198Z,100724.56
2022-10-31T02:13:52.204Z,100722.02
2022-10-31T02:16:23.074Z,100722.54
2022-10-31T02:18:55.436Z,100716.21
2022-10-31T02:21:33.587Z,100718.77
2022-10-31T02:24:40.419Z,100718.42
2022-10-31T02:27:20.149Z,100712.41
2022-10-31T02:30:11.046Z,100717.19
2022-10-31T02:33:00.789Z,100718.38
2022-10-31T02:35:47.768Z,100720.93
2022-10-31T02:38:29.279Z,100717.16
2022-10-31T02:41:08.505Z,100719.39
2022-10-31T02:43:58.323Z,100723.31
2022-10-31T02:46:35.031Z,100721.78
2022-10-31T02:49:13.051Z,100721.93
2022-10-31T02:51:45.549Z,100722.78
2022-10-31T02:54:28.671Z,100725.86
2022-10-31T02:57:04.604Z,100727.40
2022-10-31T02:59:39.174Z,100732.70
2022-10-31T03:02:25.215Z,100733.55
2022-10-31T03:05:24.342Z,100740.20
2022-10-31T03:08:04.695Z,100742.95
2022-10-31T03:10:43.560Z,100745.68
2022-10-31T03:15:58.967Z,100744.14
2022-10-31T03:18:34.362Z,100746.00
2022-10-31T03:21:12.384Z,100750.79
2022-10-31T03:23:45.319Z,100750.59
2022-10-31T03:26:25.050Z,100754.19
2022-10-31T03:28:59.510Z,100757.77
2022-10-31T03:31:34.331Z,100756.06
2022-10-31T03:34:07.189Z,100757.25
2022-10-31T03:36:41.145Z,100761.70
2022-10-31T03:39:15.813Z,100757.09
2022-10-31T03:41:51.412Z,100759.34
2022-10-31T03:44:23.365Z,100765.17
2022-10-31T03:47:01.780Z,100762.98
2022-10-31T03:49:34.239Z,100763.15
2022-10-31T03:52:13.424Z,100762.31
2022-10-31T03:54:47.071Z,100762.67
2022-10-31T03:57:30.112Z,100766.95
2022-10-31T04:00:06.339Z,100765.42
2022-10-31T04:02:44.796Z,100766.79
2022-10-31T04:05:20.210Z,100765.94
2022-10-31T04:07:54.063Z,100768.00
2022-10-31T04:10:31.810Z,100771.07
2022-10-31T04:13:09.365Z,100769.02
2022-10-31T04:15:50.381Z,100773.80
2022-10-31T04:18:21.695Z,100775.51
2022-10-31T04:21:01.373Z,100767.82
2022-10-31T04:23:32.666Z,100770.72
2022-10-31T04:26:04.755Z,100772.26
2022-10-31T04:28:35.789Z,100772.26
2022-10-31T04:31:07.353Z,100774.82
2022-10-31T04:33:39.187Z,100773.80
2022-10-31T04:36:10.949Z,100773.12
2022-10-31T04:38:41.988Z,100777.23
2022-10-31T04:41:30.478Z,100776.01
2022-10-31T04:44:07.162Z,100775.81
2022-10-31T04:46:38.001Z,100778.55
2022-10-31T04:49:09.240Z,100777.38
2022-10-31T04:51:40.295Z,100779.77
2022-10-31T04:54:12.485Z,100779.59
2022-10-31T04:57:06.380Z,100784.39
2022-10-31T04:59:37.263Z,100782.49
2022-10-31T05:02:08.231Z,100785.74
2022-10-31T05:04:47.055Z,100787.97
2022-10-31T05:07:17.944Z,100788.30
2022-10-31T05:09:48.779Z,100785.41
2022-10-31T05:12:19.609Z,100784.39
2022-10-31T05:15:11.216Z,100783.35
2022-10-31T05:18:01.567Z,100787.45
2022-10-31T05:20:58.980Z,100791.05
2022-10-31T05:23:40.334Z,100786.61
2022-10-31T05:26:14.555Z,100787.29
2022-10-31T05:28:45.646Z,100792.08
2022-10-31T05:31:17.281Z,100791.05
2022-10-31T05:33:48.563Z,100793.61
2022-10-31T05:36:39.453Z,100794.45
2022-10-31T05:39:20.063Z,100795.48
2022-10-31T05:41:52.904Z,100798.04
2022-10-31T05:44:29.609Z,100799.40
2022-10-31T05:47:19.025Z,100798.39
2022-10-31T05:50:16.051Z,100801.30
2022-10-31T05:52:58.616Z,100799.27
2022-10-31T05:55:34.948Z,100796.52
2022-10-31T05:58:14.020Z,100802.50
2022-10-31T06:00:49.027Z,100804.55
2022-10-31T06:03:19.916Z,100806.07
2022-10-31T06:06:11.654Z,100807.42
2022-10-31T06:08:45.623Z,100806.05
2022-10-31T06:11:19.517Z,100807.55
2022-10-31T06:14:08.851Z,100807.52
2022-10-31T06:16:49.461Z,100808.73
2022-10-31T06:19:44.118Z,100806.18
2022-10-31T06:22:16.559Z,100812.42
2022-10-31T06:24:47.624Z,100814.74
2022-10-31T06:27:31.241Z,100810.68
2022-10-31T06:30:03.993Z,100813.71
2022-10-31T06:32:36.445Z,100812.49
2022-10-31T06:35:08.685Z,100809.98
2022-10-31T06:37:44.370Z,100811.11
2022-10-31T06:40:31.104Z,100815.88
2022-10-31T06:43:22.709Z,100814.33
2022-10-31T06:45:55.052Z,100813.43
2022-10-31T06:48:29.683Z,100815.79
2022-10-31T06:51:32.722Z,100814.04
2022-10-31T06:54:03.904Z,100812.75
2022-10-31T06:56:35.464Z,100812.99
2022-10-31T06:59:07.939Z,100812.66
2022-10-31T07:02:09.758Z,100811.28
2022-10-31T07:04:41.891Z,100812.54
2022-10-31T07:07:12.972Z,100812.08
2022-10-31T07:09:43.808Z,100814.59
2022-10-31T07:12:16.540Z,100814.87
2022-10-31T07:14:52.430Z,100814.80
2022-10-31T07:17:29.893Z,100816.61
2022-10-31T07:20:04.643Z,100814.36
2022-10-31T07:22:40.166Z,100817.00
2022-10-31T07:25:13.873Z,100815.91
2022-10-31T07:28:04.697Z,100813.66
2022-10-31T07:30:43.708Z,100816.02
2022-10-31T07:33:14.740Z,100817.73
2022-10-31T07:36:17.992Z,100816.17
2022-10-31T07:39:10.847Z,100818.11
2022-10-31T07:42:03.452Z,100817.42
2022-10-31T07:44:57.739Z,100818.70
2022-10-31T07:48:19.119Z,100823.30
2022-10-31T07:51:29.438Z,100822.38
2022-10-31T07:54:39.958Z,100824.87
2022-10-31T07:57:34.820Z,100826.17
2022-10-31T08:00:29.739Z,100829.10
2022-10-31T08:03:23.167Z,100832.05
2022-10-31T08:06:28.092Z,100829.63
2022-10-31T08:09:58.647Z,100837.14
2022-10-31T08:13:02.940Z,100838.71
2022-10-31T08:15:55.391Z,100837.36
2022-10-31T08:18:49.591Z,100842.11
2022-10-31T08:21:42.171Z,100837.47
2022-10-31T08:24:37.112Z,100836.98
2022-10-31T08:27:29.362Z,100837.46
2022-10-31T08:30:23.629Z,100838.48
2022-10-31T08:33:35.448Z,100840.52
2022-10-31T08:36:44.388Z,100847.24
2022-10-31T08:39:40.843Z,100846.27
2022-10-31T08:42:37.980Z,100846.92
2022-10-31T08:45:30.839Z,100849.19
2022-10-31T08:48:23.157Z,100853.47
2022-10-31T08:51:15.203Z,100853.70
2022-10-31T08:53:48.790Z,100854.64
2022-10-31T08:56:59.235Z,100859.12
2022-10-31T09:00:11.448Z,100853.38
2022-10-31T09:03:26.306Z,100850.95
2022-10-31T09:06:18.103Z,100853.75
2022-10-31T09:09:13.370Z,100845.61
2022-10-31T09:12:05.739Z,100846.23
2022-10-31T09:15:16.035Z,100852.55
2022-10-31T09:18:37.300Z,100854.88
2022-10-31T09:21:29.385Z,100858.68
2022-10-31T09:24:24.357Z,100855.77
2022-10-31T09:27:18.767Z,100851.92
2022-10-31T09:30:14.214Z,100853.11
2022-10-31T09:33:11.951Z,100851.87
2022-10-31T09:36:06.672Z,100857.83
2022-10-31T09:38:59.854Z,100858.62
2022-10-31T09:42:04.497Z,100862.96
2022-10-31T09:45:06.301Z,100858.23
2022-10-31T09:48:26.857Z,100857.55
2022-10-31T09:51:47.938Z,100867.58
2022-10-31T09:54:55.688Z,100863.46
2022-10-31T09:57:49.232Z,100860.86
2022-10-31T10:00:42.237Z,100861.09
2022-10-31T10:03:38.648Z,100857.30
2022-10-31T10:06:45.639Z,100857.02
2022-10-31T10:10:19.365Z,100856.80
2022-10-31T10:13:54.386Z,100855.39
2022-10-31T10:17:00.962Z,100854.88
2022-10-31T10:20:20.962Z,100849.02
2022-10-31T10:23:32.433Z,100847.54
2022-10-31T10:29:41.867Z,100845.74
2022-10-31T10:32:45.542Z,100849.61
2022-10-31T10:35:42.399Z,100848.28
2022-10-31T10:38:38.828Z,100845.10
2022-10-31T10:41:35.040Z,100843.65
2022-10-31T10:44:44.342Z,100838.95
2022-10-31T10:47:43.712Z,100838.36
2022-10-31T10:50:41.627Z,100838.98
2022-10-31T10:54:03.161Z,100844.05
2022-10-31T10:57:10.708Z,100840.45
2022-10-31T11:00:13.389Z,100837.56
2022-10-31T11:03:06.073Z,100839.52
2022-10-31T11:06:02.880Z,100841.98
2022-10-31T11:08:54.909Z,100841.00
2022-10-31T11:12:02.931Z,100838.73
2022-10-31T11:15:01.486Z,100833.08
2022-10-31T11:17:58.465Z,100838.46
2022-10-31T11:20:55.644Z,100835.77
2022-10-31T11:23:47.823Z,100840.55
2022-10-31T11:26:41.344Z,100840.70
2022-10-31T11:29:34.458Z,100842.41
2022-10-31T11:32:30.946Z,100842.06
2022-10-31T11:35:24.972Z,100836.06
2022-10-31T11:38:21.596Z,100834.66
2022-10-31T11:41:19.340Z,100835.11
2022-10-31T11:44:20.485Z,100839.27
2022-10-31T11:47:19.956Z,100835.66
2022-10-31T11:50:28.501Z,100837.36
2022-10-31T11:53:22.938Z,100836.89
2022-10-31T11:56:08.283Z,100827.48
2022-10-31T11:58:39.862Z,100824.20
2022-10-31T12:01:27.700Z,100826.21
2022-10-31T12:04:09.140Z,100832.73
2022-10-31T12:06:42.231Z,100833.95
2022-10-31T12:09:25.000Z,100829.77
2022-10-31T12:12:20.638Z,100826.11
2022-10-31T12:15:07.299Z,100817.74
2022-10-31T12:17:47.788Z,100821.54
2022-10-31T12:20:28.096Z,100819.98
2022-10-31T12:23:07.894Z,100821.15
2022-10-31T12:25:51.582Z,100819.76
2022-10-31T12:28:55.118Z,100821.77
2022-10-31T12:31:45.993Z,100819.01
2022-10-31T12:34:52.966Z,100817.20
2022-10-31T12:38:06.510Z,100813.84
2022-10-31T12:41:12.633Z,100812.91
2022-10-31T12:44:13.344Z,100808.68
2022-10-31T12:47:20.909Z,100803.00
2022-10-31T12:50:29.990Z,100805.19
2022-10-31T12:53:26.262Z,100811.65
2022-10-31T12:56:10.607Z,100809.83
2022-10-31T12:58:54.191Z,100809.84
2022-10-31T13:01:45.385Z,100808.48
2022-10-31T13:04:21.879Z,100808.63
2022-10-31T13:06:57.503Z,100810.65
2022-10-31T13:09:35.756Z,100813.89
2022-10-31T13:12:12.899Z,100809.23
2022-10-31T13:14:48.805Z,100811.27
2022-10-31T13:17:28.435Z,100809.38
2022-10-31T13:20:14.505Z,100809.27
2022-10-31T13:22:49.686Z,100811.98
2022-10-31T13:25:26.059Z,100811.55
2022-10-31T13:28:01.748Z,100813.67
2022-10-31T13:30:38.866Z,100812.67
2022-10-31T13:33:19.839Z,100809.51
2022-10-31T13:36:00.189Z,100809.47
2022-10-31T13:38:39.314Z,100812.19
2022-10-31T13:41:32.321Z,100808.21
2022-10-31T13:44:08.535Z,100812.31
2022-10-31T13:46:44.515Z,100810.05
2022-10-31T13:49:42.876Z,100813.79
2022-10-31T13:52:27.059Z,100813.73
2022-10-31T13:54:58.202Z,100811.27
2022-10-31T13:57:35.256Z,100809.37
2022-10-31T14:00:24.051Z,100804.83
2022-10-31T14:02:57.830Z,100801.70
2022-10-31T14:05:32.357Z,100799.75
2022-10-31T14:08:06.185Z,100799.16
2022-10-31T14:10:40.186Z,100800.11
2022-10-31T14:13:17.780Z,100802.33
2022-10-31T14:16:01.003Z,100798.53
2022-10-31T14:18:36.965Z,100802.01
2022-10-31T14:21:29.402Z,100801.14
2022-10-31T14:24:01.553Z,100802.03
2022-10-31T14:26:38.393Z,100801.72
2022-10-31T14:29:25.810Z,100804.45
2022-10-31T14:32:00.618Z,100804.98
2022-10-31T14:34:35.969Z,100803.23
2022-10-31T14:37:20.675Z,100806.88
2022-10-31T14:40:06.833Z,100807.27
2022-10-31T14:42:54.941Z,100808.19
2022-10-31T14:45:38.010Z,100812.17
2022-10-31T14:48:29.081Z,100811.70
2022-10-31T14:51:02.220Z,100816.40
2022-10-31T14:53:36.698Z,100811.31
2022-10-31T14:56:13.679Z,100811.52
2022-10-31T14:58:47.952Z,100809.96
2022-10-31T15:01:25.148Z,100807.91
2022-10-31T15:06:55.019Z,100812.80
2022-10-31T15:09:29.959Z,100814.98
2022-10-31T15:12:00.445Z,100815.98
2022-10-31T15:14:32.941Z,100818.87
2022-10-31T15:17:07.166Z,100818.80
2022-10-31T15:19:38.850Z,100814.77
2022-10-31T15:22:16.472Z,100814.71
2022-10-31T15:24:48.222Z,100814.10
2022-10-31T15:27:20.608Z,100812.64
2022-10-31T15:29:56.625Z,100813.06
2022-10-31T15:32:28.931Z,100812.44
2022-10-31T15:35:00.180Z,100814.05
2022-10-31T15:37:31.421Z,100815.50
2022-10-31T15:40:16.885Z,100817.28
2022-10-31T15:42:52.912Z,100817.36
2022-10-31T15:45:27.879Z,100819.15
2022-10-31T15:48:01.882Z,100822.81
2022-10-31T15:50:38.331Z,100824.92
2022-10-31T15:53:16.672Z,100828.54
2022-10-31T15:55:55.391Z,100828.23
2022-10-31T15:58:28.094Z,100830.98
2022-10-31T16:01:04.658Z,100830.66
2022-10-31T16:03:37.342Z,100833.45
2022-10-31T16:06:21.666Z,100832.28
2022-10-31T16:08:53.474Z,100830.23
2022-10-31T16:11:32.062Z,100834.73
2022-10-31T16:14:07.009Z,100834.08
2022-10-31T16:16:47.520Z,100828.63
2022-10-31T16:19:22.902Z,100827.65
2022-10-31T16:21:57.406Z,100832.15
2022-10-31T16:24:31.728Z,100833.61
2022-10-31T16:27:07.819Z,100836.39
2022-10-31T16:29:44.483Z,100837.80
2022-10-31T16:32:36.974Z,100837.84
2022-10-31T16:35:30.393Z,100839.40
2022-10-31T16:38:01.344Z,100839.58
2022-10-31T16:40:33.100Z,100840.25
2022-10-31T16:43:04.568Z,100837.66
2022-10-31T16:45:37.129Z,100839.23
2022-10-31T16:48:12.984Z,100835.98
2022-10-31T16:50:47.406Z,100839.74
2022-10-31T16:53:18.957Z,100837.71
2022-10-31T16:55:56.437Z,100837.56
2022-10-31T16:58:30.708Z,100837.59
2022-10-31T17:01:02.384Z,100838.66
2022-10-31T17:03:33.395Z,100835.80
2022-10-31T17:06:04.524Z,100839.24
2022-10-31T17:08:35.455Z,100840.98
2022-10-31T17:11:07.154Z,100844.93
2022-10-31T17:13:38.327Z,100842.35
2022-10-31T17:16:09.925Z,100839.92
2022-10-31T17:18:40.756Z,100841.13
2022-10-31T17:21:20.582Z,100842.33
2022-10-31T17:23:51.869Z,100843.36
2022-10-31T17:26:23.246Z,100841.14
2022-10-31T17:28:54.376Z,100842.86
2022-10-31T17:31:29.457Z,100843.38
2022-10-31T17:34:02.204Z,100842.83
2022-10-31T17:36:35.545Z,100844.67
2022-10-31T17:39:09.709Z,100841.88
2022-10-31T17:41:40.701Z,100837.19
2022-10-31T17:44:14.200Z,100844.20
2022-10-31T17:46:45.162Z,100841.63
2022-10-31T17:49:17.639Z,100843.81
2022-10-31T17:51:49.994Z,100846.19
2022-10-31T17:54:23.295Z,100844.80
2022-10-31T17:56:55.780Z,100842.19
2022-10-31T17:59:30.218Z,100840.42
2022-10-31T18:02:02.056Z,100842.80
2022-10-31T18:04:33.262Z,100843.81
2022-10-31T18:07:05.057Z,100839.69
2022-10-31T18:09:36.891Z,100838.77
2022-10-31T18:12:08.576Z,100837.76
2022-10-31T18:14:42.475Z,100841.01
2022-10-31T18:17:16.104Z,100840.99
2022-10-31T18:19:47.159Z,100842.33
2022-10-31T18:22:18.279Z,100843.49
2022-10-31T18:25:00.863Z,100840.05
2022-10-31T18:27:32.914Z,100838.79
2022-10-31T18:30:04.053Z,100835.66
2022-10-31T18:32:36.505Z,100837.54
2022-10-31T18:35:08.590Z,100836.48
2022-10-31T18:37:40.025Z,100837.80
2022-10-31T18:40:12.350Z,100843.94
2022-10-31T18:42:43.462Z,100839.25
2022-10-31T18:45:32.581Z,100841.75
2022-10-31T18:48:06.098Z,100837.57
2022-10-31T18:50:40.254Z,100839.94
2022-10-31T18:53:11.337Z,100836.30
2022-10-31T18:55:47.443Z,100835.07
2022-10-31T18:58:23.257Z,100838.52
2022-10-31T19:00:54.760Z,100832.88
2022-10-31T19:03:26.994Z,100834.63
2022-10-31T19:05:59.270Z,100835.89
2022-10-31T19:08:30.748Z,100838.66
2022-10-31T19:11:08.868Z,100834.05
2022-10-31T19:13:41.671Z,100831.48
2022-10-31T19:16:15.400Z,100830.96
2022-10-31T19:18:47.871Z,100829.21
2022-10-31T19:21:19.650Z,100825.08
2022-10-31T19:23:52.882Z,100824.39
2022-10-31T19:26:24.834Z,100824.59
2022-10-31T19:28:56.593Z,100826.52
2022-10-31T19:31:27.634Z,100826.73
2022-10-31T19:33:58.840Z,100826.94
2022-10-31T19:36:30.340Z,100829.38
2022-10-31T19:39:01.767Z,100830.27
2022-10-31T19:41:33.009Z,100830.45
2022-10-31T19:44:04.059Z,100829.44
2022-10-31T19:46:53.375Z,100829.66
2022-10-31T19:49:24.711Z,100825.11
2022-10-31T19:51:55.624Z,100822.75
2022-10-31T19:54:26.633Z,100822.10
2022-10-31T19:56:57.504Z,100820.78
2022-10-31T19:59:28.649Z,100819.98
2022-10-31T20:01:59.858Z,100818.98
2022-10-31T20:04:33.704Z,100814.54
2022-10-31T20:07:05.044Z,100808.93
2022-10-31T20:09:36.907Z,100804.66
2022-10-31T20:12:08.666Z,100801.23
2022-10-31T20:14:39.922Z,100797.81
2022-10-31T20:17:11.067Z,100799.02
2022-10-31T20:19:43.422Z,100797.68
2022-10-31T20:22:15.316Z,100794.43
2022-10-31T20:24:46.340Z,100793.59
2022-10-31T20:27:17.438Z,100797.89
2022-10-31T20:29:49.653Z,100796.17
2022-10-31T20:32:23.684Z,100795.86
2022-10-31T20:34:54.639Z,100796.38
2022-10-31T20:37:25.598Z,100801.02
2022-10-31T20:39:56.809Z,100804.09
2022-10-31T20:42:31.144Z,100802.89
2022-10-31T20:45:02.608Z,100798.09
2022-10-31T20:47:34.038Z,100798.42
2022-10-31T20:50:09.508Z,100802.86
2022-10-31T20:52:45.349Z,100800.45
2022-10-31T20:55:17.842Z,100803.36
2022-10-31T20:57:49.231Z,100802.64
2022-10-31T21:00:21.651Z,100803.52
2022-10-31T21:02:53.799Z,100799.39
2022-10-31T21:05:28.389Z,100797.85
2022-10-31T21:08:02.115Z,100802.33
2022-10-31T21:10:36.758Z,100800.96
2022-10-31T21:13:07.979Z,100799.25
2022-10-31T21:15:39.229Z,100797.86
2022-10-31T21:18:10.542Z,100801.10
2022-10-31T21:20:47.173Z,100799.58
2022-10-31T21:23:21.815Z,100795.96
2022-10-31T21:25:54.473Z,100794.23
2022-10-31T21:28:25.835Z,100791.35
2022-10-31T21:30:57.682Z,100789.29
2022-10-31T21:33:29.323Z,100785.68
2022-10-31T21:36:00.276Z,100788.08
2022-10-31T21:38:31.733Z,100781.37
2022-10-31T21:41:04.230Z,100784.65
2022-10-31T21:43:37.906Z,100787.78
2022-10-31T21:46:10.869Z,100787.80
2022-10-31T21:48:43.646Z,100784.36
2022-10-31T21:51:16.613Z,100783.52
2022-10-31T21:54:05.307Z,100781.32
2022-10-31T21:56:36.868Z,100777.55
2022-10-31T21:59:08.284Z,100773.28
2022-10-31T22:01:39.897Z,100772.64
2022-10-31T22:04:11.338Z,100773.18
2022-10-31T22:06:42.541Z,100776.62
2022-10-31T22:09:15.861Z,100778.35
2022-10-31T22:11:47.368Z,100777.86
2022-10-31T22:14:18.512Z,100773.05
2022-10-31T22:16:49.570Z,100766.52
2022-10-31T22:19:20.740Z,100769.26
2022-10-31T22:21:51.817Z,100764.98
2022-10-31T22:24:22.901Z,100764.10
2022-10-31T22:26:53.797Z,100762.72
2022-10-31T22:29:24.729Z,100757.92
2022-10-31T22:31:59.629Z,100756.58
2022-10-31T22:34:32.599Z,100757.59
2022-10-31T22:37:03.526Z,100760.34
2022-10-31T22:39:34.620Z,100757.94
2022-10-31T22:42:05.718Z,100755.87
2022-10-31T22:44:36.577Z,100759.48
2022-10-31T22:47:07.611Z,100755.18
2022-10-31T22:49:38.663Z,100758.78
2022-10-31T22:52:09.987Z,100756.23
2022-10-31T22:54:41.058Z,100754.20
2022-10-31T22:57:12.400Z,100753.02
2022-10-31T22:59:43.602Z,100753.23
2022-10-31T23:02:14.706Z,100755.33
2022-10-31T23:04:45.812Z,100754.49
2022-10-31T23:07:21.611Z,100751.77
2022-10-31T23:09:56.701Z,100752.42
2022-10-31T23:12:50.457Z,100748.14
2022-10-31T23:15:21.409Z,100752.42
2022-10-31T23:17:52.568Z,100750.71
2022-10-31T23:20:23.755Z,100751.04
2022-10-31T23:22:54.795Z,100751.20
2022-10-31T23:25:43.626Z,100748.59
2022-10-31T23:28:14.571Z,100742.77
2022-10-31T23:30:48.001Z,100740.17
2022-10-31T23:33:18.926Z,100739.50
2022-10-31T23:35:50.084Z,100740.70
2022-10-31T23:38:21.369Z,100740.36
2022-10-31T23:40:52.393Z,100737.80
2022-10-31T23:43:23.252Z,100736.23
2022-10-31T23:45:54.397Z,100735.23
2022-10-31T23:48:25.189Z,100734.90
2022-10-31T23:50:56.299Z,100732.36
2022-10-31T23:53:27.594Z,100733.92
2022-10-31T23:55:58.781Z,100732.24
2022-10-31T23:58:29.589Z,100733.84
